Time;durP1;ratioP1;P1;durP2;ratioP2;P2;SDS_P1;SDS_P2;PMS_P1;PMS_P2;Temp;Humidity;BMP_temperature;BMP_pressure;BME280_temperature;BME280_humidity;BME280_pressure;Samples;Min_cycle;Max_cycle;Signal;HPM_P1;HPM_P2
2021/05/14 00:02:05;;;;;;;6.20;2.03;;;;;;;;;;5133514;28;20070;-70
2021/05/14 00:04:31;;;;;;;7.30;2.30;;;14.90;84.30;;;;;;5133761;27;20048;-69
2021/05/14 00:06:57;;;;;;;11.60;2.05;;;14.90;84.80;;;;;;5133577;28;20055;-69
2021/05/14 00:09:23;;;;;;;5.63;1.88;;;14.90;85.10;;;;;;5133257;28;20040;-70
2021/05/14 00:11:49;;;;;;;8.05;2.40;;;14.80;84.90;;;;;;5133514;28;20035;-70
2021/05/14 00:14:15;;;;;;;7.10;2.47;;;14.80;85.00;;;;;;5132059;28;20023;-68
2021/05/14 00:16:41;;;;;;;13.32;2.65;;;14.80;84.90;;;;;;5137142;27;20110;-68
2021/05/14 00:19:07;;;;;;;5.72;2.20;;;14.80;85.10;;;;;;5137389;27;20107;-70
2021/05/14 00:21:33;;;;;;;7.03;2.00;;;14.80;85.20;;;;;;5137249;27;20031;-70
2021/05/14 00:23:59;;;;;;;5.13;2.50;;;14.80;85.40;;;;;;5137199;27;20055;-70
2021/05/14 00:26:25;;;;;;;6.65;2.25;;;14.80;85.40;;;;;;5136868;27;20108;-70
2021/05/14 00:28:51;;;;;;;7.72;2.50;;;14.80;85.80;;;;;;5136834;27;20486;-70
2021/05/14 00:31:17;;;;;;;8.00;2.38;;;14.80;85.90;;;;;;5136993;27;20034;-68
2021/05/14 00:33:43;;;;;;;9.05;2.13;;;14.80;85.70;;;;;;5136897;27;20034;-71
2021/05/14 00:36:10;;;;;;;6.13;2.00;;;14.80;85.70;;;;;;5136804;27;20499;-68
2021/05/14 00:38:36;;;;;;;4.28;2.00;;;14.80;85.80;;;;;;5136951;27;20042;-68
2021/05/14 00:41:03;;;;;;;5.32;2.25;;;14.70;86.20;;;;;;5136765;27;20023;-68
2021/05/14 00:43:30;;;;;;;5.68;2.40;;;14.70;86.50;;;;;;5136971;27;20098;-70
2021/05/14 00:45:56;;;;;;;5.38;2.70;;;14.70;86.40;;;;;;5137058;27;20022;-68
2021/05/14 00:48:22;;;;;;;7.57;3.00;;;14.70;86.50;;;;;;5136935;27;20023;-68
2021/05/14 00:50:48;;;;;;;6.18;2.60;;;14.70;86.70;;;;;;5136889;27;20115;-68
2021/05/14 00:53:13;;;;;;;9.98;3.45;;;14.70;86.60;;;;;;5136989;27;20058;-71
2021/05/14 00:55:39;;;;;;;8.35;3.42;;;14.70;86.80;;;;;;5136935;27;20382;-74
2021/05/14 00:58:05;;;;;;;8.88;3.30;;;14.70;86.90;;;;;;5135325;27;20035;-75
2021/05/14 01:00:31;;;;;;;5.95;3.50;;;14.70;87.00;;;;;;5133356;27;20070;-72
2021/05/14 01:02:57;;;;;;;6.10;3.83;;;14.70;86.80;;;;;;5133722;27;20156;-75
2021/05/14 01:05:24;;;;;;;7.50;3.90;;;14.70;86.80;;;;;;5135202;27;20040;-75
2021/05/14 01:07:54;;;;;;;9.48;3.40;;;14.80;86.90;;;;;;5135210;27;20383;-75
2021/05/14 01:10:20;;;;;;;7.22;3.28;;;14.70;87.00;;;;;;5136123;27;20058;-72
2021/05/14 01:12:46;;;;;;;8.15;3.53;;;14.80;86.90;;;;;;5135969;27;20041;-72
2021/05/14 01:15:12;;;;;;;7.78;3.80;;;14.80;86.90;;;;;;5136255;27;20031;-72
2021/05/14 01:17:38;;;;;;;4.60;3.42;;;14.80;87.00;;;;;;5136249;27;20410;-74
2021/05/14 01:20:05;;;;;;;9.82;3.92;;;14.80;87.00;;;;;;5135808;27;20027;-75
2021/05/14 01:22:31;;;;;;;9.50;4.55;;;14.80;87.10;;;;;;5135912;27;20035;-75
2021/05/14 01:24:56;;;;;;;10.38;4.10;;;14.80;87.20;;;;;;5135991;27;20390;-75
2021/05/14 01:27:23;;;;;;;8.23;3.97;;;14.80;87.10;;;;;;5135291;27;20031;-75
2021/05/14 01:29:49;;;;;;;9.77;4.60;;;14.80;87.20;;;;;;5135830;27;20019;-75
2021/05/14 01:32:16;;;;;;;10.93;4.60;;;14.80;87.20;;;;;;5135975;27;20034;-73
2021/05/14 01:34:42;;;;;;;6.57;4.22;;;14.80;87.30;;;;;;5135780;27;20027;-73
2021/05/14 01:37:08;;;;;;;9.25;5.18;;;14.80;87.20;;;;;;5135515;27;20038;-75
2021/05/14 01:39:34;;;;;;;10.15;5.07;;;14.80;87.40;;;;;;5135421;27;20023;-73
2021/05/14 01:42:00;;;;;;;7.13;4.57;;;14.80;87.50;;;;;;5135647;27;20556;-76
2021/05/14 01:44:25;;;;;;;13.25;5.03;;;14.80;87.50;;;;;;5135576;27;20027;-75
2021/05/14 01:46:51;;;;;;;11.85;5.22;;;14.80;87.30;;;;;;5135604;27;20096;-72
2021/05/14 01:49:17;;;;;;;9.68;5.32;;;14.80;87.30;;;;;;5135275;27;20023;-75
2021/05/14 01:51:43;;;;;;;10.98;5.22;;;14.80;87.40;;;;;;5134750;27;20497;-75
2021/05/14 01:54:09;;;;;;;10.30;5.35;;;14.80;87.40;;;;;;5135101;27;20031;-75
2021/05/14 01:56:35;;;;;;;13.02;5.22;;;14.80;87.20;;;;;;5135142;27;20023;-72
2021/05/14 01:59:00;;;;;;;8.25;4.80;;;14.70;87.70;;;;;;5134645;27;20118;-75
2021/05/14 02:01:26;;;;;;;6.63;4.20;;;14.80;87.30;;;;;;5135156;27;20023;-75
2021/05/14 02:03:52;;;;;;;7.38;3.92;;;14.80;87.20;;;;;;5135366;27;20026;-75
2021/05/14 02:06:18;;;;;;;13.05;4.30;;;14.70;87.30;;;;;;5135187;27;20035;-75
2021/05/14 02:08:45;;;;;;;10.13;3.70;;;14.70;87.30;;;;;;5134803;27;20034;-74
2021/05/14 02:11:11;;;;;;;10.35;4.10;;;14.70;87.40;;;;;;5134912;27;20035;-75
2021/05/14 02:13:41;;;;;;;9.07;4.00;;;14.70;87.40;;;;;;5134828;27;20031;-75
2021/05/14 02:16:08;;;;;;;11.25;4.18;;;14.70;87.50;;;;;;5134977;27;20054;-75
2021/05/14 02:18:35;;;;;;;6.80;3.30;;;14.70;87.60;;;;;;5134810;27;20052;-75
2021/05/14 02:21:01;;;;;;;7.35;3.70;;;14.70;87.50;;;;;;5134967;27;20039;-75
2021/05/14 02:23:27;;;;;;;5.38;2.75;;;14.70;87.60;;;;;;5133438;27;20031;-75
2021/05/14 02:25:54;;;;;;;10.15;3.50;;;14.70;87.60;;;;;;5134708;27;20019;-75
2021/05/14 02:28:20;;;;;;;7.25;3.38;;;14.70;87.50;;;;;;5134545;27;21390;-75
2021/05/14 02:30:46;;;;;;;11.18;3.88;;;14.70;87.60;;;;;;5134906;27;20015;-75
2021/05/14 02:33:12;;;;;;;9.25;4.18;;;14.70;87.60;;;;;;5134552;27;20114;-76
2021/05/14 02:35:38;;;;;;;11.10;4.35;;;14.70;87.80;;;;;;5134785;27;20102;-73
2021/05/14 02:38:05;;;;;;;11.13;4.25;;;14.70;87.90;;;;;;5134090;27;20076;-73
2021/05/14 02:40:31;;;;;;;5.97;2.80;;;14.70;87.80;;;;;;5133826;27;20548;-73
2021/05/14 02:42:57;;;;;;;5.82;2.60;;;14.70;87.40;;;;;;5134456;27;20035;-76
2021/05/14 02:45:23;;;;;;;8.23;3.63;;;14.70;87.30;;;;;;5134475;27;20019;-75
2021/05/14 02:47:49;;;;;;;9.82;3.50;;;14.70;87.80;;;;;;5134097;27;20417;-75
2021/05/14 02:50:15;;;;;;;6.30;3.20;;;14.70;88.10;;;;;;5134102;27;20015;-75
2021/05/14 02:52:41;;;;;;;8.75;3.33;;;14.70;88.10;;;;;;5134292;27;20027;-75
2021/05/14 02:55:08;;;;;;;6.93;2.95;;;14.70;88.10;;;;;;5134580;27;20378;-75
2021/05/14 02:57:34;;;;;;;6.75;3.05;;;14.70;88.10;;;;;;5134137;27;20025;-75
2021/05/14 03:00:00;;;;;;;7.05;3.10;;;14.70;88.20;;;;;;5134094;27;20045;-75
2021/05/14 03:02:26;;;;;;;7.85;3.35;;;14.70;88.20;;;;;;5134391;27;20031;-75
2021/05/14 03:04:52;;;;;;;6.43;2.85;;;14.70;88.20;;;;;;5134247;27;20052;-75
2021/05/14 03:07:19;;;;;;;6.35;2.72;;;14.70;88.10;;;;;;5134088;27;20118;-72
2021/05/14 03:09:45;;;;;;;8.20;3.35;;;14.70;88.10;;;;;;5134127;27;20035;-74
2021/05/14 03:12:11;;;;;;;6.65;3.08;;;14.70;88.10;;;;;;5133851;27;20471;-75
2021/05/14 03:14:37;;;;;;;7.50;3.40;;;14.70;88.10;;;;;;5133912;27;20020;-75
2021/05/14 03:17:03;;;;;;;4.53;2.92;;;14.70;88.20;;;;;;5133867;27;20117;-75
2021/05/14 03:19:28;;;;;;;5.43;2.80;;;14.70;88.40;;;;;;5134256;27;20027;-76
2021/05/14 03:21:54;;;;;;;7.50;2.80;;;14.70;88.30;;;;;;5133801;27;20058;-68
2021/05/14 03:24:20;;;;;;;5.80;2.50;;;14.70;88.30;;;;;;5132600;28;20034;-72
2021/05/14 03:26:48;;;;;;;5.90;2.85;;;14.70;88.10;;;;;;5133741;28;20038;-68
2021/05/14 03:29:14;;;;;;;8.65;2.78;;;14.70;88.00;;;;;;5133612;28;20027;-70
2021/05/14 03:31:40;;;;;;;7.55;3.08;;;14.70;87.90;;;;;;5133837;28;20030;-70
2021/05/14 03:34:06;;;;;;;8.15;2.70;;;14.70;87.70;;;;;;5133793;28;20024;-68
2021/05/14 03:36:32;;;;;;;7.18;3.30;;;14.70;87.90;;;;;;5133896;28;20098;-68
2021/05/14 03:38:58;;;;;;;5.25;2.70;;;14.70;88.00;;;;;;5133840;28;20100;-70
2021/05/14 03:43:55;;;;;;;6.35;3.10;;;14.70;88.20;;;;;;5134218;28;20031;-70
2021/05/14 03:46:21;;;;;;;11.07;3.55;;;14.70;88.40;;;;;;5134048;28;20076;-75
2021/05/14 03:48:47;;;;;;;6.93;3.60;;;14.70;88.40;;;;;;5133791;28;20122;-70
2021/05/14 03:51:13;;;;;;;6.95;3.55;;;14.70;88.50;;;;;;5136627;27;20491;-70
2021/05/14 03:53:38;;;;;;;7.75;3.47;;;14.70;88.40;;;;;;5136572;27;20023;-70
2021/05/14 03:56:05;;;;;;;5.72;3.70;;;14.70;88.30;;;;;;5137950;27;20478;-70
2021/05/14 03:58:30;;;;;;;10.30;5.72;;;14.70;88.40;;;;;;5137962;27;20015;-70
2021/05/14 04:00:56;;;;;;;9.30;6.47;;;14.70;88.50;;;;;;5137657;27;20491;-70
2021/05/14 04:03:22;;;;;;;10.18;7.32;;;14.70;88.50;;;;;;5137602;27;20110;-75
2021/05/14 04:05:49;;;;;;;8.98;6.45;;;14.70;88.50;;;;;;5137449;27;20027;-75
2021/05/14 04:08:15;;;;;;;12.77;6.93;;;14.70;88.50;;;;;;5137610;27;20031;-76
2021/05/14 04:16:09;;;;;;;8.50;5.40;;;14.70;88.50;;;;;;5137562;27;20391;-75
2021/05/14 04:18:38;;;;;;;13.63;6.03;;;14.70;88.50;;;;;;5137377;27;20019;-71
2021/05/14 04:21:05;;;;;;;17.02;5.85;;;14.70;88.50;;;;;;5137362;27;20023;-70
2021/05/14 04:23:30;;;;;;;9.52;5.88;;;14.70;88.60;;;;;;5137375;27;20391;-68
2021/05/14 04:25:56;;;;;;;9.68;5.20;;;14.70;88.70;;;;;;5136900;27;20023;-70
2021/05/14 04:28:22;;;;;;;13.07;5.75;;;14.70;88.70;;;;;;5136783;27;20023;-70
2021/05/14 04:30:48;;;;;;;8.25;5.47;;;14.70;88.80;;;;;;5137263;27;20015;-68
2021/05/14 04:33:14;;;;;;;11.38;5.45;;;14.70;88.70;;;;;;5137221;27;20049;-69
2021/05/14 04:35:39;;;;;;;9.68;5.50;;;14.70;88.80;;;;;;5137399;27;20144;-74
2021/05/14 04:38:05;;;;;;;10.13;4.43;;;14.70;89.00;;;;;;5136651;27;20012;-75
2021/05/14 04:40:31;;;;;;;11.60;4.10;;;14.70;89.10;;;;;;5137068;27;20023;-75
2021/05/14 04:43:03;;;;;;;7.57;3.75;;;14.70;89.30;;;;;;5136204;27;20027;-75
2021/05/14 04:45:30;;;;;;;5.65;3.40;;;14.70;89.30;;;;;;5136774;27;20340;-75
2021/05/14 04:47:56;;;;;;;6.05;3.10;;;14.70;89.10;;;;;;5136903;27;20019;-75
2021/05/14 04:50:22;;;;;;;7.60;2.88;;;14.70;89.10;;;;;;5136546;27;20047;-75
2021/05/14 04:52:48;;;;;;;6.18;2.55;;;14.70;88.90;;;;;;5136722;27;20023;-75
2021/05/14 04:55:17;;;;;;;6.05;2.70;;;14.70;88.50;;;;;;5136690;27;20046;-75
2021/05/14 04:57:43;;;;;;;5.70;2.90;;;14.70;88.30;;;;;;5136469;27;20488;-75
2021/05/14 05:00:09;;;;;;;5.35;2.63;;;14.70;88.10;;;;;;5136143;27;20047;-75
2021/05/14 05:02:36;;;;;;;8.07;3.05;;;14.70;87.90;;;;;;5135296;27;20128;-75
2021/05/14 05:05:02;;;;;;;5.75;2.95;;;14.70;87.90;;;;;;5136554;27;20045;-75
2021/05/14 05:07:30;;;;;;;6.53;3.08;;;14.70;87.90;;;;;;5136269;27;20475;-75
2021/05/14 05:09:56;;;;;;;5.68;3.03;;;14.70;88.10;;;;;;5136310;27;20052;-75
2021/05/14 05:12:22;;;;;;;9.18;3.00;;;14.70;88.60;;;;;;5136418;27;20023;-75
2021/05/14 05:14:48;;;;;;;7.75;3.05;;;14.70;89.10;;;;;;5136408;27;20371;-72
2021/05/14 05:17:14;;;;;;;6.30;3.28;;;14.70;89.30;;;;;;5134812;27;20035;-75
2021/05/14 05:19:40;;;;;;;5.13;2.53;;;14.70;89.40;;;;;;5136120;27;20531;-75
2021/05/14 05:22:05;;;;;;;8.20;3.05;;;14.70;89.40;;;;;;5136027;27;20035;-75
2021/05/14 05:24:31;;;;;;;7.22;4.43;;;14.70;89.50;;;;;;5135777;27;20023;-75
2021/05/14 05:26:57;;;;;;;9.27;4.10;;;14.70;89.40;;;;;;5136107;27;20164;-75
2021/05/14 05:29:22;;;;;;;6.20;3.90;;;14.70;89.50;;;;;;5135726;27;20015;-73
2021/05/14 05:31:48;;;;;;;12.85;4.53;;;14.70;89.50;;;;;;5136007;27;20022;-75
2021/05/14 05:34:14;;;;;;;5.78;3.92;;;14.70;89.60;;;;;;5135791;27;20037;-75
2021/05/14 05:36:39;;;;;;;5.28;4.70;;;14.70;89.60;;;;;;5135842;27;20019;-72
2021/05/14 05:39:06;;;;;;;9.80;4.95;;;14.70;89.70;;;;;;5135619;27;20054;-70
2021/05/14 05:41:31;;;;;;;9.60;5.03;;;14.70;89.60;;;;;;5135340;27;20035;-75
2021/05/14 05:43:57;;;;;;;8.70;5.28;;;14.70;89.50;;;;;;5135783;27;20023;-75
2021/05/14 05:46:23;;;;;;;8.68;5.10;;;14.70;89.60;;;;;;5135683;27;20528;-74
2021/05/14 05:48:49;;;;;;;5.85;4.88;;;14.70;89.60;;;;;;5135627;27;20019;-75
2021/05/14 05:51:16;;;;;;;13.25;5.40;;;14.70;89.90;;;;;;5134241;27;20448;-74
2021/05/14 05:53:44;;;;;;;7.57;5.07;;;14.70;89.80;;;;;;5134157;27;20023;-72
2021/05/14 05:56:11;;;;;;;9.80;5.00;;;14.70;90.10;;;;;;5135754;27;20055;-74
2021/05/14 05:58:37;;;;;;;7.50;4.95;;;14.70;90.00;;;;;;5135410;27;20027;-72
2021/05/14 06:01:03;;;;;;;9.10;5.03;;;14.70;90.30;;;;;;5134993;27;20047;-72
2021/05/14 06:03:29;;;;;;;6.90;4.15;;;14.70;90.00;;;;;;5135362;27;20042;-73
2021/05/14 06:05:55;;;;;;;10.25;4.90;;;14.70;90.00;;;;;;5135368;27;20027;-74
2021/05/14 06:08:20;;;;;;;12.77;4.55;;;14.70;90.00;;;;;;5135084;27;20572;-74
2021/05/14 06:10:49;;;;;;;6.75;4.20;;;14.70;90.00;;;;;;5135028;27;20033;-73
2021/05/14 06:13:18;;;;;;;7.10;3.47;;;14.70;90.00;;;;;;5135205;27;20112;-74
2021/05/14 06:15:44;;;;;;;7.20;2.60;;;14.70;90.00;;;;;;5135030;27;20034;-74
2021/05/14 06:18:15;;;;;;;9.65;2.88;;;14.70;89.90;;;;;;5135121;27;20088;-74
2021/05/14 06:20:44;;;;;;;5.95;2.78;;;14.70;89.70;;;;;;5134929;27;20019;-75
2021/05/14 06:23:11;;;;;;;5.72;2.67;;;14.70;89.70;;;;;;5134590;27;20039;-74
2021/05/14 06:25:37;;;;;;;6.00;2.80;;;14.70;89.70;;;;;;5134762;27;20016;-75
2021/05/14 06:28:03;;;;;;;5.35;2.72;;;14.60;89.50;;;;;;5133929;27;20082;-74
2021/05/14 06:30:29;;;;;;;5.85;2.75;;;14.60;89.30;;;;;;5133929;27;20374;-74
2021/05/14 06:32:55;;;;;;;7.25;3.28;;;14.60;89.20;;;;;;5134444;27;20023;-75
2021/05/14 06:35:22;;;;;;;8.98;3.80;;;14.60;89.50;;;;;;5134687;27;20080;-75
2021/05/14 06:37:48;;;;;;;5.53;3.00;;;14.60;89.60;;;;;;5134575;27;20019;-74
2021/05/14 06:40:14;;;;;;;5.65;2.88;;;14.60;89.80;;;;;;5134559;27;20512;-70
2021/05/14 06:42:40;;;;;;;4.82;2.80;;;14.60;89.80;;;;;;5134390;27;20031;-70
2021/05/14 06:45:07;;;;;;;8.52;2.50;;;14.60;89.80;;;;;;5134731;27;20019;-68
2021/05/14 06:47:32;;;;;;;7.40;2.30;;;14.70;89.90;;;;;;5134576;27;20424;-68
2021/05/14 06:50:03;;;;;;;5.15;2.10;;;14.70;89.90;;;;;;5134551;27;20023;-69
2021/05/14 06:52:29;;;;;;;5.18;1.70;;;14.70;89.90;;;;;;5134562;27;20019;-68
2021/05/14 06:54:54;;;;;;;4.28;1.90;;;14.70;89.80;;;;;;5134468;27;20406;-68
2021/05/14 06:57:21;;;;;;;3.50;1.70;;;14.70;89.70;;;;;;5132266;27;20031;-68
2021/05/14 06:59:46;;;;;;;4.32;2.22;;;14.70;90.00;;;;;;5125367;27;20046;-68
2021/05/14 07:02:12;;;;;;;3.40;1.67;;;14.70;89.90;;;;;;5113164;28;20036;-69
2021/05/14 07:04:38;;;;;;;4.35;1.80;;;14.70;90.00;;;;;;5112775;28;20031;-68
2021/05/14 07:07:03;;;;;;;6.20;1.60;;;14.80;90.10;;;;;;5112578;28;20024;-72
2021/05/14 07:09:29;;;;;;;2.95;1.60;;;14.80;90.10;;;;;;5112106;28;20030;-69
2021/05/14 07:11:55;;;;;;;3.78;1.60;;;14.70;90.00;;;;;;5111768;28;20568;-69
2021/05/14 07:14:21;;;;;;;2.65;1.40;;;14.80;90.00;;;;;;5091358;28;20061;-69
2021/05/14 07:16:46;;;;;;;5.53;1.80;;;14.80;90.00;;;;;;5091306;28;20039;-69
2021/05/14 07:19:14;;;;;;;3.38;1.77;;;14.80;90.00;;;;;;5101910;28;20024;-71
2021/05/14 07:21:43;;;;;;;3.47;1.50;;;14.90;90.00;;;;;;5112710;28;20059;-68
2021/05/14 07:24:09;;;;;;;4.72;2.05;;;14.90;90.00;;;;;;5112583;28;20024;-68
2021/05/14 07:26:36;;;;;;;5.20;1.10;;;14.90;90.00;;;;;;5112356;28;20375;-68
2021/05/14 07:29:03;;;;;;;2.30;1.20;;;14.90;90.00;;;;;;5112919;28;20389;-68
2021/05/14 07:31:29;;;;;;;2.65;1.20;;;14.90;89.80;;;;;;5113592;28;20036;-68
2021/05/14 07:33:55;;;;;;;4.22;1.40;;;15.00;89.70;;;;;;5113383;28;20051;-68
2021/05/14 07:36:21;;;;;;;4.22;1.30;;;15.00;89.70;;;;;;5113597;28;20028;-68
2021/05/14 07:38:47;;;;;;;3.00;1.08;;;15.00;89.50;;;;;;5113153;28;20440;-67
2021/05/14 07:41:13;;;;;;;2.42;1.15;;;15.00;89.40;;;;;;5113257;28;20492;-65
2021/05/14 07:43:39;;;;;;;2.63;1.05;;;15.00;89.20;;;;;;5113105;28;20035;-67
2021/05/14 07:46:04;;;;;;;2.63;1.10;;;15.10;89.00;;;;;;5113276;28;20474;-68
2021/05/14 07:48:30;;;;;;;3.70;1.20;;;15.10;88.70;;;;;;5113250;28;20032;-68
2021/05/14 07:50:56;;;;;;;4.82;1.30;;;15.10;88.70;;;;;;5113205;28;20031;-68
2021/05/14 07:53:22;;;;;;;4.10;1.40;;;15.10;88.80;;;;;;5113449;28;20102;-68
2021/05/14 07:55:48;;;;;;;4.88;1.40;;;15.10;88.00;;;;;;5111795;28;20391;-68
2021/05/14 07:58:14;;;;;;;2.55;1.30;;;15.10;87.70;;;;;;5113253;28;20032;-68
2021/05/14 08:00:40;;;;;;;2.15;1.08;;;15.10;87.90;;;;;;5112826;28;20052;-68
2021/05/14 08:03:06;;;;;;;2.75;1.17;;;15.20;88.10;;;;;;5111234;28;20109;-68
2021/05/14 08:05:32;;;;;;;2.65;1.05;;;15.20;87.90;;;;;;5112119;28;20047;-68
2021/05/14 08:08:12;;;;;;;3.47;1.10;;;15.20;87.50;;;;;;5111679;28;20024;-68
2021/05/14 08:10:39;;;;;;;2.38;0.80;;;15.20;87.10;;;;;;5113183;28;20372;-68
2021/05/14 08:13:05;;;;;;;3.50;1.00;;;15.20;86.80;;;;;;5113442;28;20020;-68
2021/05/14 08:15:31;;;;;;;2.53;0.80;;;15.20;86.30;;;;;;5113299;28;20020;-68
2021/05/14 08:17:57;;;;;;;5.55;1.30;;;15.20;86.00;;;;;;5113136;28;20473;-69
2021/05/14 08:20:23;;;;;;;2.95;1.00;;;15.20;86.40;;;;;;5113418;28;20023;-68
2021/05/14 08:22:50;;;;;;;3.55;1.10;;;15.20;86.80;;;;;;5113198;28;20391;-68
2021/05/14 08:25:16;;;;;;;3.75;0.98;;;15.20;86.70;;;;;;5113070;28;20058;-68
2021/05/14 08:27:42;;;;;;;3.22;1.02;;;15.20;86.60;;;;;;5113134;28;20384;-68
2021/05/14 08:30:10;;;;;;;3.50;1.13;;;15.20;86.60;;;;;;5113121;28;20027;-68
2021/05/14 08:32:36;;;;;;;3.92;1.20;;;15.20;86.80;;;;;;5113496;28;20122;-67
2021/05/14 08:35:03;;;;;;;3.95;1.20;;;15.20;87.10;;;;;;5113129;28;20031;-68
2021/05/14 08:37:29;;;;;;;4.82;1.20;;;15.20;87.30;;;;;;5114622;28;20050;-68
2021/05/14 08:39:55;;;;;;;3.22;0.95;;;15.20;87.30;;;;;;5116787;27;20464;-68
2021/05/14 08:42:21;;;;;;;2.53;1.00;;;15.30;87.10;;;;;;5116625;28;20498;-68
2021/05/14 08:44:46;;;;;;;3.20;1.02;;;15.30;86.90;;;;;;5116490;28;20034;-69
2021/05/14 08:47:12;;;;;;;3.80;1.00;;;15.30;87.10;;;;;;5116431;28;20055;-68
2021/05/14 08:49:39;;;;;;;3.65;1.23;;;15.30;87.40;;;;;;5116388;28;20034;-68
2021/05/14 08:52:07;;;;;;;4.18;1.13;;;15.40;87.70;;;;;;5116629;28;20024;-68
2021/05/14 08:54:35;;;;;;;2.88;0.90;;;15.40;87.90;;;;;;5116608;28;20046;-68
2021/05/14 08:57:01;;;;;;;3.28;1.10;;;15.50;87.90;;;;;;5116390;28;20034;-68
2021/05/14 08:59:26;;;;;;;4.15;1.20;;;15.50;87.70;;;;;;5116164;28;20408;-68
2021/05/14 09:01:52;;;;;;;5.28;1.10;;;15.50;87.70;;;;;;5116231;28;20027;-69
2021/05/14 09:04:19;;;;;;;4.13;0.80;;;15.50;87.70;;;;;;5116466;28;20498;-68
2021/05/14 09:06:46;;;;;;;2.95;1.00;;;15.60;88.00;;;;;;5116511;28;20098;-67
2021/05/14 09:09:14;;;;;;;3.78;1.52;;;15.60;88.20;;;;;;5115838;28;20034;-68
2021/05/14 09:11:46;;;;;;;2.53;0.93;;;15.70;88.00;;;;;;5116353;28;20475;-68
2021/05/14 09:14:30;;;;;;;2.38;1.02;;;15.70;87.90;;;;;;5116405;28;20027;-68
2021/05/14 09:16:56;;;;;;;1.60;0.77;;;15.80;88.00;;;;;;5116049;28;20028;-68
2021/05/14 09:19:35;;;;;;;1.42;0.55;;;15.90;87.90;;;;;;5115759;28;20043;-68
2021/05/14 09:22:21;;;;;;;3.03;0.50;;;15.90;87.30;;;;;;5115636;28;20067;-68
2021/05/14 09:24:58;;;;;;;2.05;0.80;;;16.00;87.00;;;;;;5115900;28;20073;-68
2021/05/14 09:27:31;;;;;;;3.65;2.30;;;16.00;85.90;;;;;;5116395;28;20069;-69
2021/05/14 09:29:58;;;;;;;3.55;1.40;;;16.00;84.80;;;;;;5116148;28;20039;-72
2021/05/14 09:32:28;;;;;;;2.35;0.80;;;16.10;84.90;;;;;;5115862;28;20095;-73
2021/05/14 09:34:56;;;;;;;2.00;0.68;;;16.10;84.80;;;;;;5114941;28;20047;-72
2021/05/14 09:37:26;;;;;;;1.70;0.47;;;16.10;84.30;;;;;;5114753;28;20058;-72
2021/05/14 09:40:11;;;;;;;1.33;0.47;;;16.10;83.90;;;;;;5115132;28;20030;-72
2021/05/14 09:42:37;;;;;;;1.98;0.40;;;16.20;83.70;;;;;;5115259;28;20032;-71
2021/05/14 09:45:22;;;;;;;1.88;0.45;;;16.20;83.50;;;;;;5114465;27;20026;-69
2021/05/14 09:48:14;;;;;;;0.88;0.40;;;16.20;83.50;;;;;;5113752;28;20103;-71
2021/05/14 09:50:40;;;;;;;1.17;0.38;;;16.20;84.20;;;;;;5114227;28;20020;-71
2021/05/14 09:53:14;;;;;;;0.77;0.40;;;16.20;83.50;;;;;;5114194;27;20059;-71
2021/05/14 09:55:51;;;;;;;0.45;0.45;;;16.20;83.60;;;;;;5113765;28;20035;-72
2021/05/14 09:58:21;;;;;;;3.65;1.25;;;16.20;84.00;;;;;;5114155;28;20435;-72
2021/05/14 10:00:48;;;;;;;1.70;0.60;;;16.20;84.50;;;;;;5113964;28;20047;-71
2021/05/14 10:03:19;;;;;;;1.40;0.55;;;16.20;84.30;;;;;;5113809;28;20070;-71
2021/05/14 10:05:49;;;;;;;3.10;0.68;;;16.20;84.30;;;;;;5113020;28;20379;-72
2021/05/14 10:08:19;;;;;;;4.57;0.60;;;16.20;83.80;;;;;;5113886;28;20028;-72
2021/05/14 10:10:46;;;;;;;2.78;0.50;;;16.20;83.10;;;;;;5112885;28;20043;-71
2021/05/14 10:13:12;;;;;;;2.17;0.43;;;16.20;82.50;;;;;;5112942;28;20055;-70
2021/05/14 10:15:39;;;;;;;1.75;0.60;;;16.20;82.50;;;;;;5112726;28;20032;-71
2021/05/14 10:18:07;;;;;;;1.23;0.60;;;16.20;83.10;;;;;;5111959;27;20035;-72
2021/05/14 10:20:37;;;;;;;1.80;0.75;;;16.20;82.90;;;;;;5113467;28;20020;-71
2021/05/14 10:23:04;;;;;;;1.80;0.60;;;16.20;82.50;;;;;;5113333;28;20050;-71
2021/05/14 10:25:50;;;;;;;1.25;0.40;;;16.20;82.30;;;;;;5114071;28;20019;-73
2021/05/14 10:28:23;;;;;;;1.60;0.40;;;16.20;81.80;;;;;;5114364;28;20049;-75
2021/05/14 10:31:04;;;;;;;2.72;0.60;;;16.10;81.70;;;;;;5113710;28;20035;-74
2021/05/14 10:33:50;;;;;;;2.03;0.40;;;16.20;81.30;;;;;;5112895;28;20057;-74
2021/05/14 10:36:26;;;;;;;1.77;0.55;;;16.10;80.60;;;;;;5112306;28;20034;-75
2021/05/14 10:39:01;;;;;;;0.82;0.50;;;16.10;81.20;;;;;;5114308;28;20035;-75
2021/05/14 10:41:27;;;;;;;3.25;0.65;;;16.10;81.50;;;;;;5114173;28;20046;-76
2021/05/14 10:44:07;;;;;;;3.17;0.52;;;16.20;81.70;;;;;;5114476;28;20032;-75
2021/05/14 10:46:33;;;;;;;1.20;0.50;;;16.20;81.80;;;;;;5114430;28;20019;-75
2021/05/14 10:49:10;;;;;;;1.95;0.60;;;16.20;81.40;;;;;;5114206;28;20098;-74
2021/05/14 10:51:51;;;;;;;1.52;0.52;;;16.20;81.10;;;;;;5114244;28;20111;-70
2021/05/14 10:54:39;;;;;;;1.83;0.50;;;16.20;79.50;;;;;;5114561;28;20069;-69
2021/05/14 10:57:06;;;;;;;7.53;0.70;;;16.20;79.30;;;;;;5107153;27;20430;-69
2021/05/14 10:59:34;;;;;;;2.25;1.00;;;16.30;79.10;;;;;;5109861;28;20043;-68
2021/05/14 11:02:01;;;;;;;2.55;0.80;;;16.30;80.40;;;;;;5111059;28;20067;-68
2021/05/14 11:04:26;;;;;;;6.93;0.80;;;16.40;81.70;;;;;;5112623;28;20027;-68
2021/05/14 11:06:53;;;;;;;1.05;0.70;;;16.40;81.30;;;;;;5113724;28;20028;-69
2021/05/14 11:09:23;;;;;;;2.80;0.70;;;16.50;81.40;;;;;;5114018;28;20020;-69
2021/05/14 11:12:06;;;;;;;2.30;0.77;;;16.60;81.50;;;;;;5114150;28;20102;-68
2021/05/14 11:14:45;;;;;;;2.10;0.80;;;16.70;82.80;;;;;;5113875;28;20106;-69
2021/05/14 11:17:22;;;;;;;1.55;0.68;;;17.00;82.40;;;;;;5114150;28;20433;-68
2021/05/14 11:19:49;;;;;;;5.57;0.80;;;17.30;82.40;;;;;;5113485;28;20107;-69
2021/05/14 11:22:22;;;;;;;1.23;0.50;;;17.60;80.80;;;;;;5113697;28;20471;-70
2021/05/14 11:25:05;;;;;;;4.10;0.68;;;17.90;79.80;;;;;;5110421;28;20392;-69
2021/05/14 11:27:33;;;;;;;2.97;0.90;;;18.20;80.20;;;;;;5110969;28;20024;-69
2021/05/14 11:30:04;;;;;;;4.85;0.82;;;18.40;79.30;;;;;;5112207;28;20023;-69
2021/05/14 11:32:40;;;;;;;3.97;0.60;;;18.50;75.70;;;;;;5113402;28;20468;-69
2021/05/14 11:35:11;;;;;;;1.75;0.50;;;18.50;75.30;;;;;;5113793;28;20050;-69
2021/05/14 11:37:50;;;;;;;5.03;0.82;;;18.40;74.60;;;;;;5113275;28;20379;-69
2021/05/14 11:40:20;;;;;;;1.45;0.70;;;18.40;76.60;;;;;;5113401;28;20019;-69
2021/05/14 11:42:51;;;;;;;2.13;0.80;;;18.50;77.00;;;;;;5113353;28;20032;-69
2021/05/14 11:45:21;;;;;;;1.58;0.70;;;18.60;76.20;;;;;;5113201;28;20024;-69
2021/05/14 11:47:54;;;;;;;2.20;0.90;;;18.80;76.00;;;;;;5113381;28;20400;-69
2021/05/14 11:50:37;;;;;;;4.13;0.80;;;19.00;74.10;;;;;;5113178;28;20038;-69
2021/05/14 11:53:08;;;;;;;3.33;0.85;;;19.00;74.70;;;;;;5113243;28;20027;-69
2021/05/14 11:55:39;;;;;;;1.13;0.60;;;18.90;73.10;;;;;;5113428;28;20048;-69
2021/05/14 11:58:06;;;;;;;3.22;0.60;;;18.90;72.90;;;;;;5113218;28;20081;-68
2021/05/14 12:00:41;;;;;;;1.25;0.60;;;18.90;72.60;;;;;;5113017;28;20439;-69
2021/05/14 12:03:17;;;;;;;1.65;0.60;;;19.00;71.40;;;;;;5113075;28;20035;-69
2021/05/14 12:05:46;;;;;;;0.90;0.60;;;19.10;72.10;;;;;;5113292;28;20414;-68
2021/05/14 12:08:15;;;;;;;1.77;0.70;;;19.20;70.70;;;;;;5112718;28;20464;-71
2021/05/14 12:10:55;;;;;;;1.42;0.73;;;19.10;73.20;;;;;;5113136;28;20055;-69
2021/05/14 12:13:47;;;;;;;0.70;0.45;;;19.10;73.20;;;;;;5116494;28;20046;-69
2021/05/14 12:16:18;;;;;;;1.88;0.70;;;19.30;75.00;;;;;;5114513;28;20036;-69
2021/05/14 12:18:49;;;;;;;1.20;0.60;;;19.40;72.30;;;;;;5116511;28;20027;-69
2021/05/14 12:21:29;;;;;;;1.25;0.75;;;19.60;68.80;;;;;;5116333;28;20015;-70
2021/05/14 12:23:56;;;;;;;1.83;0.70;;;19.70;69.50;;;;;;5116253;28;20043;-69
2021/05/14 12:26:23;;;;;;;1.88;0.60;;;19.60;69.20;;;;;;5116808;28;20024;-68
2021/05/14 12:28:51;;;;;;;0.60;0.60;;;19.50;69.20;;;;;;5116435;28;20032;-69
2021/05/14 12:31:27;;;;;;;1.48;0.57;;;19.40;69.80;;;;;;5116133;28;20023;-68
2021/05/14 12:34:07;;;;;;;3.25;0.80;;;19.30;69.30;;;;;;5116071;28;20032;-69
2021/05/14 12:36:41;;;;;;;2.65;0.55;;;19.20;69.20;;;;;;5116137;28;20031;-69
2021/05/14 12:39:08;;;;;;;0.57;0.43;;;19.10;68.60;;;;;;5116067;28;20016;-69
2021/05/14 12:41:59;;;;;;;1.60;0.55;;;19.00;69.90;;;;;;5116083;27;20031;-70
2021/05/14 12:44:28;;;;;;;1.20;0.52;;;19.00;70.30;;;;;;5115929;28;20119;-70
2021/05/14 12:47:07;;;;;;;1.08;0.57;;;18.80;71.80;;;;;;5115766;27;20028;-70
2021/05/14 12:49:52;;;;;;;1.35;0.52;;;18.90;72.00;;;;;;5114465;28;20036;-69
2021/05/14 12:52:35;;;;;;;1.23;0.55;;;19.10;71.90;;;;;;5116578;27;20028;-69
2021/05/14 12:55:12;;;;;;;1.23;0.60;;;19.30;72.20;;;;;;5116163;28;20023;-70
2021/05/14 12:57:57;;;;;;;5.97;0.50;;;19.40;70.30;;;;;;5115899;28;20031;-69
2021/05/14 13:00:41;;;;;;;1.02;0.52;;;19.70;67.90;;;;;;5115684;28;20126;-69